Time;durP1;ratioP1;P1;durP2;ratioP2;P2;SDS_P1;SDS_P2;PMS_P1;PMS_P2;Temp;Humidity;BMP_temperature;BMP_pressure;BME280_temperature;BME280_humidity;BME280_pressure;Samples;Min_cycle;Max_cycle;Signal;HPM_P1;HPM_P2
2022/06/01 00:00:51;;;;;;;8.33;5.70;;;12.10;28.00;;;;;;4997059;28;20187;-66
2022/06/01 00:03:17;;;;;;;7.30;5.83;;;12.00;30.20;;;;;;4997081;28;20176;-66
2022/06/01 00:05:43;;;;;;;6.00;5.40;;;11.90;36.70;;;;;;4996747;28;20277;-66
2022/06/01 00:08:09;;;;;;;5.30;4.83;;;11.90;25.50;;;;;;4997068;28;20175;-67
2022/06/01 00:10:35;;;;;;;5.40;4.90;;;11.90;25.30;;;;;;4996950;28;20653;-68
2022/06/01 00:13:03;;;;;;;5.13;4.63;;;11.90;20.30;;;;;;4996967;28;20294;-67
2022/06/01 00:15:30;;;;;;;5.33;3.97;;;11.90;14.90;;;;;;4996812;28;20178;-67
2022/06/01 00:17:58;;;;;;;7.73;4.40;;;11.90;8.50;;;;;;4996394;28;20287;-68
2022/06/01 00:20:25;;;;;;;5.60;4.63;;;11.80;4.30;;;;;;4996441;28;20215;-67
2022/06/01 00:22:50;;;;;;;6.93;3.73;;;11.80;2.60;;;;;;4996682;28;20183;-67
2022/06/01 00:25:16;;;;;;;5.03;4.23;;;11.70;1.00;;;;;;4996699;28;20682;-66
2022/06/01 00:27:42;;;;;;;3.73;3.47;;;11.70;1.00;;;;;;4996608;28;20171;-66
2022/06/01 00:30:11;;;;;;;5.17;3.50;;;11.70;1.00;;;;;;4995373;28;20179;-66
2022/06/01 00:32:37;;;;;;;5.67;3.40;;;11.60;1.00;;;;;;4996137;28;20662;-66
2022/06/01 00:35:04;;;;;;;5.20;3.93;;;11.60;1.00;;;;;;4996356;28;20179;-66
2022/06/01 00:37:30;;;;;;;5.00;3.50;;;11.50;1.00;;;;;;4996455;28;20194;-65
2022/06/01 00:39:56;;;;;;;6.30;3.40;;;11.50;1.00;;;;;;4996415;28;20631;-66
2022/06/01 00:42:24;;;;;;;4.20;3.50;;;11.50;1.00;;;;;;4995600;28;20195;-66
2022/06/01 00:44:51;;;;;;;3.47;3.17;;;11.60;1.00;;;;;;4996217;28;20214;-66
2022/06/01 00:47:19;;;;;;;3.80;3.30;;;11.50;1.00;;;;;;4995703;28;20193;-66
2022/06/01 00:50:06;;;;;;;3.70;3.40;;;11.50;1.00;;;;;;4996180;28;20661;-66
2022/06/01 00:52:38;;;;;;;5.10;3.30;;;11.50;1.00;;;;;;4996209;28;20221;-66
2022/06/01 00:55:12;;;;;;;5.23;3.20;;;11.40;1.00;;;;;;4996200;28;20270;-66
2022/06/01 00:57:39;;;;;;;3.77;3.47;;;11.40;1.00;;;;;;4996298;28;20217;-66
2022/06/01 01:00:12;;;;;;;4.27;3.10;;;11.40;1.00;;;;;;4996037;28;20269;-67
2022/06/01 01:02:39;;;;;;;4.10;3.40;;;11.40;1.00;;;;;;4996137;28;20209;-67
2022/06/01 01:05:07;;;;;;;3.47;3.17;;;11.40;1.00;;;;;;4996153;28;20199;-68
2022/06/01 01:07:34;;;;;;;4.47;3.60;;;11.40;1.00;;;;;;4996006;28;20186;-65
2022/06/01 01:10:00;;;;;;;4.37;3.60;;;11.40;1.00;;;;;;4995889;28;20183;-67
2022/06/01 01:12:25;;;;;;;6.77;3.67;;;11.40;1.00;;;;;;4995643;28;20661;-66
2022/06/01 01:14:51;;;;;;;3.63;3.33;;;11.40;1.00;;;;;;4995573;28;20178;-67
2022/06/01 01:17:17;;;;;;;7.37;3.43;;;11.30;1.00;;;;;;4995743;28;20584;-66
2022/06/01 01:19:46;;;;;;;3.10;2.90;;;11.30;1.00;;;;;;4995650;28;20215;-66
2022/06/01 01:22:37;;;;;;;4.73;3.17;;;11.40;1.00;;;;;;4995289;28;20219;-66
2022/06/01 01:25:17;;;;;;;4.30;3.17;;;11.30;1.00;;;;;;4994020;28;20294;-66
2022/06/01 01:27:45;;;;;;;8.03;3.30;;;11.30;1.00;;;;;;4995685;28;20167;-67
2022/06/01 01:30:31;;;;;;;7.40;3.27;;;11.20;1.00;;;;;;4995225;28;20662;-66
2022/06/01 01:33:00;;;;;;;8.90;3.73;;;11.20;1.00;;;;;;4995608;28;20191;-66
2022/06/01 01:35:26;;;;;;;6.13;3.23;;;11.10;1.00;;;;;;4995362;28;20634;-66
2022/06/01 01:37:52;;;;;;;4.87;3.17;;;11.10;1.00;;;;;;4995447;28;20167;-66
2022/06/01 01:40:18;;;;;;;3.30;3.00;;;11.00;1.00;;;;;;4995199;28;20639;-66
2022/06/01 01:42:45;;;;;;;6.37;3.23;;;11.00;1.00;;;;;;4995364;28;20179;-66
2022/06/01 01:45:23;;;;;;;5.20;3.10;;;11.00;2.60;;;;;;4994816;28;20199;-66
2022/06/01 01:47:49;;;;;;;5.17;3.30;;;11.00;1.30;;;;;;4995170;28;20532;-66
2022/06/01 01:50:15;;;;;;;5.67;3.30;;;11.00;3.40;;;;;;4993786;28;20534;-66
2022/06/01 01:52:41;;;;;;;5.47;3.60;;;10.90;6.20;;;;;;4994908;28;20183;-66
2022/06/01 01:55:25;;;;;;;6.03;3.30;;;10.90;5.10;;;;;;4993852;28;20225;-66
2022/06/01 01:58:18;;;;;;;4.67;3.20;;;10.80;7.20;;;;;;4994769;28;20226;-66
2022/06/01 02:00:49;;;;;;;4.30;3.27;;;10.80;7.20;;;;;;4995026;28;20167;-66
2022/06/01 02:03:37;;;;;;;4.47;3.13;;;10.80;8.30;;;;;;4994906;28;20254;-66
2022/06/01 02:06:15;;;;;;;5.43;3.40;;;10.80;10.50;;;;;;4994828;28;20207;-66
2022/06/01 02:08:46;;;;;;;4.83;3.20;;;10.80;12.90;;;;;;4994726;28;20170;-66
2022/06/01 02:14:17;;;;;;;5.23;3.40;;;10.80;10.50;;;;;;4994494;28;20225;-67
2022/06/01 02:16:49;;;;;;;4.50;3.00;;;10.70;11.40;;;;;;4994645;28;20175;-66
2022/06/01 02:19:20;;;;;;;3.83;3.10;;;10.70;12.50;;;;;;4994699;28;20167;-67
2022/06/01 02:21:46;;;;;;;4.23;3.10;;;10.70;12.80;;;;;;4994527;28;20297;-66
2022/06/01 02:24:12;;;;;;;5.20;3.20;;;10.60;15.20;;;;;;4994594;28;20175;-66
2022/06/01 02:26:38;;;;;;;4.83;3.23;;;10.60;18.10;;;;;;4994323;28;20317;-66
2022/06/01 02:29:14;;;;;;;3.13;2.93;;;10.50;16.90;;;;;;4994162;28;20622;-66
2022/06/01 02:31:41;;;;;;;3.37;3.07;;;10.50;18.60;;;;;;4994368;28;20183;-66
2022/06/01 02:34:09;;;;;;;5.90;3.50;;;10.50;19.60;;;;;;4994481;28;20183;-65
2022/06/01 02:36:38;;;;;;;4.50;3.37;;;10.50;20.60;;;;;;4994350;28;20182;-66
2022/06/01 02:39:07;;;;;;;4.83;3.33;;;10.50;20.10;;;;;;4994225;28;20721;-65
2022/06/01 02:44:18;;;;;;;5.30;3.50;;;10.40;24.60;;;;;;4994504;28;20197;-66
2022/06/01 02:46:44;;;;;;;5.93;3.60;;;10.40;25.70;;;;;;4994122;28;20666;-67
2022/06/01 02:49:10;;;;;;;4.47;3.33;;;10.40;28.50;;;;;;4994054;28;20626;-66
2022/06/01 02:51:36;;;;;;;3.67;3.13;;;10.40;28.10;;;;;;4994082;28;20229;-66
2022/06/01 02:54:02;;;;;;;6.60;3.63;;;10.40;29.50;;;;;;4994063;28;20622;-67
2022/06/01 02:56:28;;;;;;;3.83;3.53;;;10.30;31.40;;;;;;4993147;28;20631;-67
2022/06/01 02:58:54;;;;;;;8.83;3.67;;;10.40;32.00;;;;;;4994038;28;20214;-66
2022/06/01 03:01:19;;;;;;;5.70;3.60;;;10.40;34.70;;;;;;4994096;28;20175;-67
2022/06/01 03:03:45;;;;;;;5.10;3.93;;;10.30;35.10;;;;;;4994118;28;20176;-66
2022/06/01 03:06:11;;;;;;;4.97;3.43;;;10.30;38.00;;;;;;4993488;28;20643;-66
2022/06/01 03:08:36;;;;;;;4.43;3.60;;;10.30;39.40;;;;;;4993806;28;20172;-66
2022/06/01 03:11:03;;;;;;;3.83;3.33;;;10.30;40.00;;;;;;4993358;28;20194;-66
2022/06/01 03:13:28;;;;;;;4.83;3.97;;;10.30;42.70;;;;;;4993927;28;20187;-66
2022/06/01 03:15:54;;;;;;;3.83;3.37;;;10.30;42.60;;;;;;4993436;28;20172;-67
2022/06/01 03:18:21;;;;;;;4.03;3.53;;;10.30;42.70;;;;;;4993797;28;20199;-66
2022/06/01 03:20:46;;;;;;;7.07;3.73;;;10.30;45.20;;;;;;4993163;28;20222;-66
2022/06/01 03:23:12;;;;;;;5.47;3.50;;;10.30;47.70;;;;;;4993466;28;20645;-66
2022/06/01 03:25:38;;;;;;;4.80;3.40;;;10.30;47.40;;;;;;4993396;28;20222;-66
2022/06/01 03:28:05;;;;;;;5.93;3.70;;;10.30;51.00;;;;;;4993680;28;20202;-66
2022/06/01 03:30:32;;;;;;;7.97;3.70;;;10.30;48.30;;;;;;4992242;28;20286;-66
2022/06/01 03:32:58;;;;;;;5.90;3.77;;;10.30;50.80;;;;;;4993592;28;20638;-65
2022/06/01 03:35:26;;;;;;;4.87;4.00;;;10.40;52.20;;;;;;4992116;28;20182;-65
2022/06/01 03:37:52;;;;;;;4.10;3.67;;;10.40;51.60;;;;;;4994014;28;20270;-66
2022/06/01 03:40:20;;;;;;;6.07;4.00;;;10.40;50.80;;;;;;4993188;28;20255;-66
2022/06/01 03:42:45;;;;;;;4.63;3.43;;;10.40;49.90;;;;;;4991521;28;20690;-66
2022/06/01 03:47:56;;;;;;;5.80;3.87;;;10.60;51.10;;;;;;4993238;28;20244;-66
2022/06/01 03:50:24;;;;;;;3.80;3.50;;;10.80;47.80;;;;;;4992024;28;20686;-65
2022/06/01 03:52:51;;;;;;;6.93;4.00;;;10.90;40.20;;;;;;4992954;28;20190;-66
2022/06/01 03:55:17;;;;;;;7.03;4.07;;;11.10;40.30;;;;;;4992578;28;20168;-66
2022/06/01 03:57:43;;;;;;;5.83;3.97;;;11.20;30.00;;;;;;4993083;28;20175;-65
2022/06/01 04:00:13;;;;;;;4.00;3.60;;;11.20;27.20;;;;;;4993244;28;20171;-65
2022/06/01 04:02:40;;;;;;;7.23;4.30;;;11.30;25.40;;;;;;4993424;28;20574;-66
2022/06/01 04:05:06;;;;;;;6.00;4.20;;;11.30;25.10;;;;;;4993052;28;20651;-66
2022/06/01 04:07:32;;;;;;;5.93;3.90;;;11.30;26.30;;;;;;4993021;28;20218;-66
2022/06/01 04:09:57;;;;;;;9.17;4.80;;;11.30;29.00;;;;;;4992372;28;20183;-65
2022/06/01 04:12:23;;;;;;;4.50;4.10;;;11.30;27.20;;;;;;4992818;28;20179;-66
2022/06/01 04:14:49;;;;;;;10.87;4.50;;;11.30;27.90;;;;;;4992819;28;20179;-66
2022/06/01 04:17:15;;;;;;;8.73;4.77;;;11.40;28.30;;;;;;4993931;28;20202;-66
2022/06/01 04:19:40;;;;;;;9.83;4.70;;;11.40;26.60;;;;;;4996632;28;20183;-66
2022/06/01 04:22:08;;;;;;;6.33;4.40;;;11.60;25.20;;;;;;4996213;28;20614;-67
2022/06/01 04:24:34;;;;;;;6.60;4.83;;;11.50;20.40;;;;;;4996444;28;20275;-67
2022/06/01 04:27:01;;;;;;;8.10;4.50;;;11.40;25.70;;;;;;4996173;28;20176;-66
2022/06/01 04:29:26;;;;;;;6.80;4.60;;;11.40;26.30;;;;;;4996512;28;20241;-65
2022/06/01 04:32:03;;;;;;;7.53;4.47;;;11.40;30.70;;;;;;4996079;28;20262;-65
2022/06/01 04:34:29;;;;;;;8.13;4.67;;;11.50;33.00;;;;;;4996055;28;20175;-66
2022/06/01 04:36:55;;;;;;;10.77;4.70;;;11.60;29.10;;;;;;4995805;28;20177;-66
2022/06/01 04:39:24;;;;;;;7.77;4.67;;;11.90;31.70;;;;;;4995983;28;20583;-66
2022/06/01 04:41:50;;;;;;;5.37;4.70;;;12.10;15.80;;;;;;4995741;28;20178;-66
2022/06/01 04:44:16;;;;;;;8.60;4.83;;;12.10;12.90;;;;;;4995992;28;20175;-66
2022/06/01 04:46:42;;;;;;;6.57;4.77;;;12.20;14.80;;;;;;4995853;28;20214;-66
2022/06/01 04:49:07;;;;;;;9.67;4.97;;;12.30;10.60;;;;;;4995672;28;20269;-66
2022/06/01 04:51:36;;;;;;;9.37;4.63;;;12.40;3.80;;;;;;4996782;28;20209;-66
2022/06/01 04:54:03;;;;;;;11.93;5.10;;;12.90;7.20;;;;;;4995162;28;20179;-67
2022/06/01 04:56:29;;;;;;;8.73;4.50;;;13.90;1.00;;;;;;4995481;28;20171;-67
2022/06/01 04:58:55;;;;;;;6.97;4.23;;;15.10;1.00;;;;;;4995527;28;20697;-68
2022/06/01 05:01:21;;;;;;;7.00;3.50;;;16.10;1.00;;;;;;4995095;28;20190;-67
2022/06/01 05:03:46;;;;;;;7.87;4.20;;;17.10;99.90;;;;;;4995464;28;20589;-67
2022/06/01 05:06:12;;;;;;;9.13;4.30;;;18.10;1.00;;;;;;4995135;28;20269;-67
2022/06/01 05:08:37;;;;;;;15.70;4.87;;;18.50;99.90;;;;;;4994536;28;20662;-67
2022/06/01 05:11:03;;;;;;;15.10;4.57;;;19.00;1.00;;;;;;4994736;28;20183;-67
2022/06/01 05:13:29;;;;;;;8.70;3.87;;;19.60;99.90;;;;;;4994745;28;20203;-68
2022/06/01 05:15:58;;;;;;;5.78;3.65;;;20.70;99.90;;;;;;4994191;28;20199;-68
2022/06/01 05:18:25;;;;;;;10.35;4.18;;;21.80;1.00;;;;;;4994362;28;20199;-68
2022/06/01 05:20:53;;;;;;;7.78;4.00;;;21.90;1.00;;;;;;4993350;28;20251;-68
2022/06/01 05:23:19;;;;;;;12.50;4.18;;;22.20;1.00;;;;;;4994629;28;20189;-68
2022/06/01 05:25:47;;;;;;;5.65;3.83;;;22.90;99.90;;;;;;4994511;28;20214;-68
2022/06/01 05:28:15;;;;;;;7.97;3.90;;;23.10;99.90;;;;;;4994426;28;20175;-68
2022/06/01 05:30:41;;;;;;;8.43;3.67;;;22.50;99.90;;;;;;4994346;28;20210;-68
2022/06/01 05:33:07;;;;;;;8.98;3.85;;;21.20;1.00;;;;;;4994400;28;20194;-68
2022/06/01 05:35:33;;;;;;;6.75;3.50;;;20.20;99.90;;;;;;4993898;28;20184;-67
2022/06/01 05:37:58;;;;;;;5.60;3.47;;;18.10;1.00;;;;;;4993952;28;20524;-67
2022/06/01 05:40:25;;;;;;;7.10;4.15;;;17.80;1.00;;;;;;4993870;28;20528;-67
2022/06/01 05:42:51;;;;;;;4.90;3.97;;;18.00;1.00;;;;;;4994841;28;20222;-68
2022/06/01 05:45:17;;;;;;;12.90;4.67;;;17.60;1.00;;;;;;4993930;28;20606;-68
2022/06/01 05:47:43;;;;;;;9.10;4.40;;;17.70;99.90;;;;;;4994413;28;20174;-67
2022/06/01 05:50:08;;;;;;;10.70;4.70;;;17.60;99.90;;;;;;4993790;28;20167;-67
2022/06/01 05:52:38;;;;;;;8.00;4.13;;;17.20;99.90;;;;;;4993446;28;20167;-67
2022/06/01 05:55:11;;;;;;;5.87;4.10;;;16.70;1.00;;;;;;4993916;28;20258;-67
2022/06/01 05:57:37;;;;;;;6.40;4.10;;;16.40;99.90;;;;;;4993800;28;20173;-67
2022/06/01 06:00:09;;;;;;;13.07;4.43;;;16.50;99.90;;;;;;4994043;28;20176;-67
2022/06/01 06:02:34;;;;;;;13.33;5.00;;;16.50;99.90;;;;;;4993414;28;20172;-68
2022/06/01 06:05:00;;;;;;;9.17;4.73;;;16.60;99.90;;;;;;4993037;28;20202;-66
2022/06/01 06:07:25;;;;;;;10.07;4.60;;;16.70;99.90;;;;;;4993053;28;20179;-68
2022/06/01 06:09:51;;;;;;;9.57;4.63;;;16.50;1.00;;;;;;4993317;28;20179;-67
2022/06/01 06:12:16;;;;;;;9.13;4.90;;;16.60;1.00;;;;;;4993241;28;20175;-68
2022/06/01 06:14:42;;;;;;;9.33;4.40;;;17.50;1.00;;;;;;4993512;28;20203;-68
2022/06/01 06:17:08;;;;;;;9.77;4.93;;;18.30;1.00;;;;;;4976289;28;20196;-68
2022/06/01 06:19:37;;;;;;;10.07;4.57;;;18.90;1.00;;;;;;4973056;28;20695;-67
2022/06/01 06:22:06;;;;;;;10.65;3.75;;;19.90;99.90;;;;;;4991244;28;20660;-68
2022/06/01 06:24:32;;;;;;;10.55;4.10;;;22.20;1.00;;;;;;4989003;28;20643;-68
2022/06/01 06:26:58;;;;;;;7.82;4.10;;;22.80;1.00;;;;;;4982792;28;20242;-69
2022/06/01 06:29:23;;;;;;;8.43;4.20;;;23.50;1.00;;;;;;4988413;28;20512;-69
2022/06/01 06:31:49;;;;;;;8.35;4.10;;;25.20;99.90;;;;;;4990254;28;20240;-70
2022/06/01 06:34:16;;;;;;;7.43;4.13;;;26.60;99.90;;;;;;4992086;28;20195;-69
2022/06/01 06:36:44;;;;;;;6.55;3.67;;;26.20;99.90;;;;;;4992574;28;20175;-70
2022/06/01 06:39:09;;;;;;;6.57;3.88;;;26.20;99.90;;;;;;4991716;28;20183;-70
2022/06/01 06:41:35;;;;;;;6.40;4.05;;;27.10;99.90;;;;;;4991994;28;20182;-70
2022/06/01 06:44:01;;;;;;;7.18;3.80;;;26.10;99.90;;;;;;4991763;28;20207;-71
2022/06/01 06:46:26;;;;;;;16.13;5.03;;;26.60;99.90;;;;;;4991661;28;20592;-71
2022/06/01 06:48:52;;;;;;;6.90;4.20;;;26.70;99.90;;;;;;4995114;28;20772;-70
2022/06/01 06:51:19;;;;;;;9.90;4.25;;;27.40;99.90;;;;;;5007324;28;20179;-70
2022/06/01 06:53:45;;;;;;;7.15;4.03;;;28.10;99.90;;;;;;4992735;28;20164;-69
2022/06/01 06:56:12;;;;;;;8.00;4.07;;;28.30;99.90;;;;;;5004115;28;20600;-70
2022/06/01 06:58:38;;;;;;;10.35;4.72;;;28.60;99.90;;;;;;4995527;28;20422;-71
2022/06/01 07:01:04;;;;;;;13.98;5.63;;;28.80;99.90;;;;;;5008448;28;20176;-71
2022/06/01 07:03:30;;;;;;;6.55;3.70;;;29.10;99.90;;;;;;4998436;28;20163;-70
2022/06/01 07:06:17;;;;;;;6.15;3.83;;;28.70;99.90;;;;;;5001161;28;20664;-71
2022/06/01 07:08:49;;;;;;;10.48;4.63;;;29.10;99.90;;;;;;4991146;28;20261;-74
2022/06/01 07:11:17;;;;;;;4.95;3.65;;;28.70;99.90;;;;;;4995018;28;20215;-74
2022/06/01 07:13:43;;;;;;;8.77;4.03;;;28.80;99.90;;;;;;5004122;28;20187;-72
2022/06/01 07:16:13;;;;;;;6.82;4.00;;;28.70;99.90;;;;;;5003727;28;20645;-72
2022/06/01 07:18:41;;;;;;;8.75;3.97;;;27.70;99.90;;;;;;4995592;28;20197;-72
2022/06/01 07:21:08;;;;;;;7.32;4.22;;;27.50;99.90;;;;;;5008034;28;20234;-72
2022/06/01 07:23:35;;;;;;;7.80;4.07;;;28.20;99.90;;;;;;4990356;28;20176;-72
2022/06/01 07:26:01;;;;;;;8.95;4.13;;;28.50;99.90;;;;;;4990649;28;20207;-73
2022/06/01 07:28:27;;;;;;;8.48;4.00;;;28.90;99.90;;;;;;5005648;28;20170;-74
2022/06/01 07:30:59;;;;;;;6.72;3.90;;;29.00;99.90;;;;;;4994512;28;20210;-73
2022/06/01 07:33:28;;;;;;;8.13;3.80;;;28.90;99.90;;;;;;5005798;28;20171;-73
2022/06/01 07:35:54;;;;;;;5.03;4.38;;;29.50;99.90;;;;;;5000992;28;20178;-74
2022/06/01 07:43:50;;;;;;;9.57;4.70;;;29.50;99.90;;;;;;5001680;28;20186;-71
2022/06/01 07:46:16;;;;;;;5.18;4.20;;;29.20;99.90;;;;;;4996013;28;20559;-71
2022/06/01 07:48:41;;;;;;;4.70;4.28;;;26.70;99.90;;;;;;4992409;28;20173;-71
2022/06/01 07:51:07;;;;;;;12.18;4.20;;;26.00;99.90;;;;;;4995324;28;20206;-71
2022/06/01 07:53:33;;;;;;;7.90;4.28;;;24.90;99.90;;;;;;4996847;28;20273;-71
2022/06/01 07:55:59;;;;;;;6.28;3.83;;;24.00;99.90;;;;;;4993883;28;20179;-70
2022/06/01 07:58:24;;;;;;;6.55;3.50;;;23.70;99.90;;;;;;4996119;28;20595;-70
2022/06/01 08:00:50;;;;;;;4.03;3.58;;;23.90;99.90;;;;;;4998614;28;20233;-70
2022/06/01 08:03:17;;;;;;;7.22;3.20;;;23.20;99.90;;;;;;4995428;28;20182;-70
2022/06/01 08:05:43;;;;;;;3.72;3.00;;;22.50;99.90;;;;;;4997032;28;20199;-70
2022/06/01 08:08:09;;;;;;;3.42;3.13;;;23.30;99.90;;;;;;4994423;28;20175;-69
2022/06/01 08:10:36;;;;;;;4.20;3.10;;;23.30;99.90;;;;;;4995505;28;20523;-71
2022/06/01 08:13:06;;;;;;;4.00;3.67;;;24.10;99.90;;;;;;4995169;28;20187;-71
2022/06/01 08:15:40;;;;;;;5.60;3.90;;;23.70;99.90;;;;;;4995296;28;20638;-71
2022/06/01 08:18:07;;;;;;;6.95;3.17;;;23.80;99.90;;;;;;4995441;28;20198;-72
2022/06/01 08:20:33;;;;;;;5.78;3.47;;;24.30;99.90;;;;;;4995622;28;20223;-71
2022/06/01 08:22:59;;;;;;;5.05;3.20;;;25.30;99.90;;;;;;4994907;28;20650;-71
2022/06/01 08:25:27;;;;;;;3.92;3.35;;;25.30;99.90;;;;;;4995456;28;20202;-71
2022/06/01 08:27:53;;;;;;;4.00;3.33;;;24.80;99.90;;;;;;4995301;28;20179;-70
2022/06/01 08:30:21;;;;;;;7.53;3.58;;;23.80;99.90;;;;;;4995706;28;20288;-70
2022/06/01 08:32:47;;;;;;;5.22;3.45;;;23.60;99.90;;;;;;4994917;28;20630;-71
2022/06/01 08:35:16;;;;;;;3.83;3.53;;;22.70;99.90;;;;;;4994325;28;20222;-70
2022/06/01 08:37:42;;;;;;;3.67;3.38;;;22.30;99.90;;;;;;4995382;28;20172;-70
2022/06/01 08:40:09;;;;;;;5.93;3.45;;;21.70;1.00;;;;;;4995332;28;20249;-71
2022/06/01 08:42:36;;;;;;;6.30;3.75;;;20.70;1.00;;;;;;4994535;28;20175;-69
2022/06/01 08:45:07;;;;;;;3.78;3.53;;;20.80;1.00;;;;;;4993730;28;20274;-70
2022/06/01 08:47:37;;;;;;;4.55;3.03;;;21.20;1.00;;;;;;4993931;28;20190;-70
2022/06/01 08:50:10;;;;;;;3.45;2.60;;;22.20;99.90;;;;;;4994547;28;20202;-72
2022/06/01 08:52:36;;;;;;;8.18;2.97;;;22.80;99.90;;;;;;4994497;28;20206;-71
2022/06/01 08:55:02;;;;;;;6.95;2.90;;;24.90;99.90;;;;;;4994813;28;20499;-72
2022/06/01 08:57:36;;;;;;;4.63;2.63;;;25.90;99.90;;;;;;4993999;28;20262;-71
2022/06/01 09:00:07;;;;;;;3.75;2.60;;;26.60;99.90;;;;;;4992991;28;20181;-70
2022/06/01 09:03:02;;;;;;;4.15;3.17;;;25.70;99.90;;;;;;4993544;28;20278;-70
2022/06/01 09:05:30;;;;;;;4.68;2.67;;;25.80;99.90;;;;;;4987030;28;20231;-69
2022/06/01 09:08:15;;;;;;;2.53;2.33;;;25.20;99.90;;;;;;4993773;28;20662;-71
2022/06/01 09:11:08;;;;;;;3.42;2.72;;;25.30;99.90;;;;;;4994118;28;20262;-71
2022/06/01 09:13:50;;;;;;;2.97;2.70;;;26.20;99.90;;;;;;4993576;28;20179;-71
2022/06/01 09:16:21;;;;;;;2.65;2.20;;;27.20;99.90;;;;;;4993937;28;20176;-70
2022/06/01 09:18:50;;;;;;;2.97;2.65;;;25.60;99.90;;;;;;4995179;28;20199;-70
2022/06/01 09:24:34;;;;;;;2.85;2.65;;;23.70;99.90;;;;;;4995014;28;20189;-70
2022/06/01 09:27:05;;;;;;;3.28;2.53;;;24.40;99.90;;;;;;4995365;28;20297;-70
2022/06/01 09:29:43;;;;;;;2.58;2.38;;;25.20;99.90;;;;;;5008475;28;20167;-70
2022/06/01 09:32:33;;;;;;;3.60;3.17;;;25.30;99.90;;;;;;5003274;28;20185;-69
2022/06/01 09:35:10;;;;;;;4.00;2.63;;;24.10;99.90;;;;;;4996872;28;20218;-70
2022/06/01 09:37:46;;;;;;;5.75;2.90;;;23.70;99.90;;;;;;5008288;28;20677;-70
2022/06/01 09:40:23;;;;;;;3.78;2.83;;;24.70;99.90;;;;;;5001422;28;20661;-70
2022/06/01 09:42:52;;;;;;;3.58;2.95;;;24.50;99.90;;;;;;4997218;28;20182;-70
2022/06/01 09:45:27;;;;;;;6.45;2.92;;;25.20;99.90;;;;;;4996824;28;20198;-72
2022/06/01 09:48:07;;;;;;;3.03;2.83;;;25.40;99.90;;;;;;4996044;28;20187;-70
2022/06/01 09:50:34;;;;;;;3.33;2.65;;;25.40;99.90;;;;;;5000800;28;20216;-71
2022/06/01 09:53:01;;;;;;;3.60;3.28;;;24.40;99.90;;;;;;4997225;28;20229;-72
2022/06/01 09:55:29;;;;;;;3.88;3.10;;;25.10;99.90;;;;;;5008461;28;20167;-72
2022/06/01 09:58:07;;;;;;;3.45;3.15;;;25.80;99.90;;;;;;4994367;28;20171;-70
2022/06/01 10:06:40;;;;;;;5.97;3.30;;;26.60;99.90;;;;;;5002824;28;20213;-71
2022/06/01 10:09:11;;;;;;;3.45;2.70;;;27.30;99.90;;;;;;4995240;28;20210;-71
2022/06/01 10:11:45;;;;;;;3.72;2.70;;;26.70;99.90;;;;;;5001773;28;20696;-71
2022/06/01 10:14:14;;;;;;;3.67;2.67;;;27.30;99.90;;;;;;4993443;28;20327;-71
2022/06/01 10:17:04;;;;;;;5.28;2.92;;;27.20;99.90;;;;;;4994268;28;20198;-70
2022/06/01 10:19:34;;;;;;;2.63;2.42;;;27.50;99.90;;;;;;4993679;28;20623;-69
2022/06/01 10:22:33;;;;;;;3.53;3.22;;;27.10;99.90;;;;;;4992882;28;20702;-71
2022/06/01 10:25:21;;;;;;;3.95;2.70;;;26.30;99.90;;;;;;4991269;28;20175;-71
2022/06/01 10:28:06;;;;;;;4.95;3.00;;;25.70;99.90;;;;;;4997494;28;20187;-69
2022/06/01 10:30:38;;;;;;;3.20;2.90;;;23.80;99.90;;;;;;4986787;28;20282;-69
2022/06/01 10:33:24;;;;;;;4.63;2.78;;;23.00;99.90;;;;;;5008996;28;20523;-70
2022/06/01 10:35:52;;;;;;;8.18;3.22;;;22.30;99.90;;;;;;5000383;28;20634;-70
2022/06/01 10:38:24;;;;;;;5.75;3.50;;;21.40;99.90;;;;;;5001301;28;20379;-69
2022/06/01 10:41:11;;;;;;;6.47;4.45;;;20.90;99.90;;;;;;5007258;28;20221;-69
2022/06/01 10:43:39;;;;;;;6.95;3.35;;;20.70;1.00;;;;;;4979021;28;20186;-70
2022/06/01 10:46:23;;;;;;;5.35;3.70;;;20.50;99.90;;;;;;4990791;28;20211;-71
2022/06/01 10:49:26;;;;;;;5.72;4.15;;;20.50;99.90;;;;;;5007698;28;20167;-70
2022/06/01 10:52:32;;;;;;;6.68;4.63;;;20.40;99.90;;;;;;4993681;28;20183;-70
2022/06/01 10:55:08;;;;;;;9.65;4.20;;;20.00;99.90;;;;;;4988965;28;20651;-70
2022/06/01 10:57:37;;;;;;;5.47;3.63;;;20.50;99.90;;;;;;5000456;28;20262;-70
2022/06/01 11:00:07;;;;;;;4.63;4.22;;;21.60;1.00;;;;;;4993127;28;20175;-71
2022/06/01 11:03:05;;;;;;;4.55;3.47;;;22.90;99.90;;;;;;4987176;28;20526;-69
2022/06/01 11:05:56;;;;;;;6.22;3.60;;;23.00;99.90;;;;;;4982310;28;20215;-72
2022/06/01 11:08:47;;;;;;;4.38;3.40;;;22.80;99.90;;;;;;5003827;28;20182;-69
2022/06/01 11:11:28;;;;;;;3.05;2.80;;;22.80;99.90;;;;;;4995184;28;20287;-68
2022/06/01 11:14:12;;;;;;;5.03;2.63;;;21.90;99.90;;;;;;5004077;28;20700;-70
2022/06/01 11:17:06;;;;;;;3.45;2.90;;;21.40;99.90;;;;;;4990886;28;20194;-70
2022/06/01 11:19:52;;;;;;;2.83;2.63;;;21.40;99.90;;;;;;4982491;28;20166;-70
2022/06/01 11:22:38;;;;;;;6.60;2.70;;;21.40;99.90;;;;;;5000182;28;20190;-69
2022/06/01 11:25:17;;;;;;;3.17;2.45;;;21.80;99.90;;;;;;4993565;28;20213;-71
2022/06/01 11:28:07;;;;;;;3.80;3.13;;;22.30;99.90;;;;;;4992921;28;20214;-71
2022/06/01 11:30:45;;;;;;;4.40;2.85;;;23.00;99.90;;;;;;4995876;28;20603;-71
2022/06/01 11:33:30;;;;;;;2.05;1.95;;;23.30;99.90;;;;;;5004016;28;20179;-70
2022/06/01 11:36:21;;;;;;;1.75;1.65;;;23.40;99.90;;;;;;5004643;28;20159;-70
2022/06/01 11:38:54;;;;;;;4.55;2.28;;;23.50;99.90;;;;;;4999089;28;20179;-70
2022/06/01 11:41:31;;;;;;;3.35;2.13;;;24.50;99.90;;;;;;5011149;28;20297;-70
2022/06/01 11:44:05;;;;;;;32.45;4.72;;;25.00;99.90;;;;;;5004071;28;20201;-69
2022/06/01 11:46:42;;;;;;;2.88;2.22;;;25.30;99.90;;;;;;5002467;28;20626;-70
2022/06/01 11:49:24;;;;;;;2.40;2.20;;;25.40;99.90;;;;;;4994985;28;20171;-69
2022/06/01 11:51:50;;;;;;;2.80;2.00;;;24.40;99.90;;;;;;5002993;28;20178;-69
2022/06/01 11:54:33;;;;;;;1.77;1.67;;;24.10;99.90;;;;;;5003577;28;20190;-70
2022/06/01 11:57:17;;;;;;;5.40;3.15;;;24.00;99.90;;;;;;5012029;28;20174;-69
2022/06/01 12:00:14;;;;;;;4.32;2.80;;;23.90;99.90;;;;;;5001821;28;20166;-69
2022/06/01 12:02:40;;;;;;;5.05;3.20;;;23.90;99.90;;;;;;5000324;28;20190;-68
2022/06/01 12:05:33;;;;;;;7.45;3.28;;;23.80;99.90;;;;;;5011417;28;20181;-70
2022/06/01 12:08:05;;;;;;;6.38;3.80;;;23.30;99.90;;;;;;4993937;28;20178;-67
2022/06/01 12:10:52;;;;;;;5.55;3.58;;;22.70;99.90;;;;;;5001845;28;20179;-67
2022/06/01 12:13:35;;;;;;;5.00;3.75;;;22.20;99.90;;;;;;5011263;28;20345;-69
2022/06/01 12:16:07;;;;;;;5.50;5.00;;;21.40;99.90;;;;;;5004813;28;20166;-69
2022/06/01 12:18:34;;;;;;;5.40;3.90;;;21.20;99.90;;;;;;5001440;28;20182;-69
2022/06/01 12:21:17;;;;;;;4.13;3.45;;;21.00;99.90;;;;;;4990953;28;20294;-71
2022/06/01 12:30:10;;;;;;;4.50;3.47;;;21.40;99.90;;;;;;5011210;28;20196;-69
2022/06/01 12:33:03;;;;;;;5.53;3.35;;;21.70;99.90;;;;;;5000359;28;20171;-70
2022/06/01 12:35:49;;;;;;;4.07;3.67;;;21.60;99.90;;;;;;4997827;28;20170;-70
2022/06/01 12:38:31;;;;;;;4.05;3.75;;;21.30;99.90;;;;;;5002535;28;20214;-69
2022/06/01 12:41:07;;;;;;;4.72;4.32;;;21.30;99.90;;;;;;4999978;28;20283;-68
2022/06/01 12:43:36;;;;;;;4.13;3.58;;;20.80;99.90;;;;;;4997602;28;20257;-70
2022/06/01 12:46:02;;;;;;;4.25;3.85;;;20.80;99.90;;;;;;5005249;28;20199;-70
2022/06/01 12:48:28;;;;;;;4.95;4.43;;;21.00;99.90;;;;;;4994023;28;20529;-69
2022/06/01 12:51:03;;;;;;;4.32;4.03;;;21.00;99.90;;;;;;4994518;28;20645;-70
2022/06/01 12:53:45;;;;;;;5.93;3.75;;;21.40;99.90;;;;;;4993349;28;20664;-71
2022/06/01 12:56:21;;;;;;;3.85;3.50;;;21.80;99.90;;;;;;5002241;28;20178;-70
2022/06/01 12:58:50;;;;;;;4.40;3.70;;;21.70;99.90;;;;;;4998455;28;20189;-69
2022/06/01 13:01:20;;;;;;;5.20;3.47;;;21.80;99.90;;;;;;5010322;28;20174;-71
2022/06/01 13:03:49;;;;;;;4.38;3.70;;;21.80;99.90;;;;;;5000331;28;20178;-71
2022/06/01 13:06:21;;;;;;;5.97;3.28;;;21.60;99.90;;;;;;5002224;28;20246;-70
2022/06/01 13:09:09;;;;;;;2.95;2.72;;;21.40;99.90;;;;;;5009731;28;20178;-69
2022/06/01 13:11:35;;;;;;;3.42;2.72;;;21.60;99.90;;;;;;4985572;28;20163;-70
2022/06/01 13:14:08;;;;;;;3.20;3.00;;;21.80;99.90;;;;;;5004388;28;20222;-69
2022/06/01 13:16:43;;;;;;;3.17;2.97;;;21.80;99.90;;;;;;5007265;28;20194;-71
2022/06/01 13:19:20;;;;;;;4.65;4.10;;;22.00;99.90;;;;;;4996941;28;20189;-69
2022/06/01 13:21:53;;;;;;;7.25;2.75;;;21.60;99.90;;;;;;5006449;28;20380;-69
2022/06/01 13:24:21;;;;;;;4.68;3.78;;;21.80;99.90;;;;;;4995186;28;20179;-70
2022/06/01 13:26:51;;;;;;;4.65;3.10;;;22.00;99.90;;;;;;4993069;28;20257;-71
2022/06/01 13:29:27;;;;;;;3.10;2.85;;;21.90;99.90;;;;;;5009059;28;20236;-71
2022/06/01 13:31:56;;;;;;;6.70;3.90;;;21.70;99.90;;;;;;5001267;28;20223;-71
2022/06/01 13:34:32;;;;;;;9.65;4.57;;;21.60;99.90;;;;;;5000408;28;20536;-69
2022/06/01 13:37:27;;;;;;;3.60;3.30;;;21.30;99.90;;;;;;5009743;28;20182;-70